Terminal Aerodrome Forecast
Issued by NWS

Home | Current Version | Previous Version | Text Only | Print | Product List | Glossary On
Versions: 1 2 3 4 5 6 7 8 9 10 11 12 13 14 15 16 17 18 19 20
000
FTUS43 KICT 011100
TAFSLN
TAF
KSLN 011139Z 0112/0212 20008KT P6SM SCT060 BKN120
     FM011500 18011KT P6SM SCT060
     FM012200 15010KT P6SM BKN060
     FM020000 12006KT P6SM VCTS BKN060CB
     FM020600 12006KT P6SM BKN060=

USA.gov is the U.S. government's official web portal to all federal, state and local government web resources and services.